Time;durP1;ratioP1;P1;durP2;ratioP2;P2;SDS_P1;SDS_P2;PMS_P1;PMS_P2;Temp;Humidity;BMP_temperature;BMP_pressure;BME280_temperature;BME280_humidity;BME280_pressure;Samples;Min_cycle;Max_cycle;Signal;HPM_P1;HPM_P2
2023/04/12 00:00:53;;;;;;;15.73;8.75;;;;;;;4.65;99.75;99178.91;5055245;28;20043;-79
2023/04/12 00:03:19;;;;;;;15.48;8.38;;;;;;;4.90;99.13;99228.03;5053679;28;20637;-79
2023/04/12 00:05:45;;;;;;;12.60;7.93;;;;;;;4.77;99.39;99211.22;5055145;28;20029;-79
2023/04/12 00:08:13;;;;;;;15.55;8.38;;;;;;;4.80;99.29;99209.38;5054862;28;20033;-78
2023/04/12 00:10:38;;;;;;;13.70;7.85;;;;;;;4.82;100.00;99217.09;5054933;28;20028;-79
2023/04/12 00:13:04;;;;;;;13.00;8.15;;;;;;;4.80;100.00;99213.69;5054896;28;20029;-79
2023/04/12 00:15:29;;;;;;;13.27;8.20;;;;;;;4.84;100.00;99218.72;5054616;28;20050;-79
2023/04/12 00:17:54;;;;;;;14.40;8.00;;;;;;;4.77;100.00;99208.66;5054783;28;20064;-79
2023/04/12 00:20:19;;;;;;;11.65;8.07;;;;;;;4.79;99.89;99204.28;5054840;28;20114;-79
2023/04/12 00:22:45;;;;;;;13.15;8.10;;;;;;;4.68;99.58;99187.41;5054806;28;20167;-79
2023/04/12 00:25:10;;;;;;;11.05;8.18;;;;;;;4.69;99.66;99188.22;5054353;28;20091;-79
2023/04/12 00:27:35;;;;;;;13.32;8.98;;;;;;;4.73;99.66;99205.31;5054725;28;20118;-79
2023/04/12 00:30:02;;;;;;;14.40;9.02;;;;;;;4.74;99.88;99205.25;5054586;28;20396;-78
2023/04/12 00:32:28;;;;;;;24.95;13.93;;;;;;;4.56;99.77;99177.44;5054484;28;20028;-79
2023/04/12 00:34:53;;;;;;;19.23;11.65;;;;;;;4.47;100.00;99175.97;5054569;28;20025;-79
2023/04/12 00:37:18;;;;;;;15.45;9.48;;;;;;;4.27;100.00;99149.94;5054338;28;20028;-79
2023/04/12 00:39:44;;;;;;;16.85;9.45;;;;;;;4.57;100.00;99193.75;5054427;28;20071;-79
2023/04/12 00:42:09;;;;;;;27.70;13.38;;;;;;;4.36;100.00;99162.53;5052978;28;20054;-79
2023/04/12 00:44:34;;;;;;;15.80;9.25;;;;;;;4.54;100.00;99186.94;5054339;28;20036;-78
2023/04/12 00:47:02;;;;;;;15.38;8.38;;;;;;;4.53;100.00;99190.41;5054440;28;20108;-79
2023/04/12 00:49:29;;;;;;;24.98;13.60;;;;;;;4.59;100.00;99199.69;5054114;28;20037;-79
2023/04/12 00:52:06;;;;;;;30.50;15.65;;;;;;;4.50;100.00;99188.75;5054209;28;20036;-79
2023/04/12 00:54:35;;;;;;;42.67;22.40;;;;;;;4.62;100.00;99213.34;5053862;28;20039;-79
2023/04/12 00:57:01;;;;;;;23.60;12.82;;;;;;;4.58;100.00;99198.84;5054076;28;20037;-79
2023/04/12 00:59:27;;;;;;;12.07;7.88;;;;;;;4.47;100.00;99172.56;5054020;28;20037;-79
2023/04/12 01:01:55;;;;;;;14.50;7.03;;;;;;;4.48;100.00;99181.97;5054106;28;20484;-79
2023/04/12 01:04:21;;;;;;;14.38;8.63;;;;;;;4.62;100.00;99197.03;5053841;28;20025;-79
2023/04/12 01:07:00;;;;;;;14.13;7.88;;;;;;;4.32;100.00;99150.63;5053930;28;20025;-79
2023/04/12 01:09:42;;;;;;;14.48;8.60;;;;;;;4.50;100.00;99185.34;5053891;28;20033;-79
2023/04/12 01:12:22;;;;;;;16.23;7.72;;;;;;;4.55;100.00;99195.50;5053942;28;20495;-79
2023/04/12 01:15:01;;;;;;;13.55;6.55;;;;;;;4.53;100.00;99198.16;5053903;28;20491;-78
2023/04/12 01:17:30;;;;;;;13.25;8.25;;;;;;;4.43;100.00;99178.69;5053844;28;20037;-79
2023/04/12 01:19:58;;;;;;;13.00;10.90;;;;;;;4.58;100.00;99208.34;5053895;28;20037;-79
2023/04/12 01:22:52;;;;;;;10.02;6.72;;;;;;;4.53;100.00;99200.72;5053618;28;20033;-79
2023/04/12 01:25:39;;;;;;;9.65;6.32;;;;;;;4.49;100.00;99199.13;5053376;28;20028;-79
2023/04/12 01:28:10;;;;;;;11.13;5.90;;;;;;;4.42;100.00;99184.72;5053291;28;20029;-79
2023/04/12 01:30:37;;;;;;;9.60;5.25;;;;;;;4.55;100.00;99195.50;5053451;28;20267;-79
2023/04/12 01:33:06;;;;;;;7.85;5.63;;;;;;;4.60;100.00;99201.41;5053509;28;20091;-78
2023/04/12 01:35:32;;;;;;;11.75;6.13;;;;;;;4.66;100.00;99191.75;5053194;28;20032;-79
2023/04/12 01:37:58;;;;;;;14.82;6.47;;;;;;;4.70;100.00;99182.19;5052117;28;20468;-79
2023/04/12 01:40:28;;;;;;;13.50;6.20;;;;;;;4.85;100.00;99193.78;5053505;28;20112;-79
2023/04/12 01:43:05;;;;;;;9.85;5.82;;;;;;;4.85;100.00;99186.88;5052254;28;20388;-79
2023/04/12 01:45:30;;;;;;;13.35;5.30;;;;;;;4.88;100.00;99179.03;5053238;28;20023;-79
2023/04/12 01:47:56;;;;;;;12.80;8.38;;;;;;;5.06;99.74;99198.28;5053206;28;20465;-79
2023/04/12 01:50:33;;;;;;;10.18;6.43;;;;;;;4.92;99.76;99167.72;5052923;28;20035;-79
2023/04/12 01:53:16;;;;;;;8.63;6.38;;;;;;;4.93;99.54;99161.69;5052641;28;20025;-79
2023/04/12 01:55:44;;;;;;;8.70;5.45;;;;;;;5.06;99.21;99190.53;5053233;28;20463;-79
2023/04/12 01:58:11;;;;;;;10.73;5.43;;;;;;;4.94;99.27;99168.53;5053045;28;20025;-79
2023/04/12 02:00:38;;;;;;;5.63;4.78;;;;;;;4.93;99.20;99165.97;5052656;28;20119;-79
2023/04/12 02:03:05;;;;;;;8.00;4.88;;;;;;;5.05;98.98;99185.41;5052869;28;20025;-79
2023/04/12 02:05:32;;;;;;;8.60;4.95;;;;;;;5.03;98.88;99176.88;5052513;28;20017;-79
2023/04/12 02:07:57;;;;;;;6.68;4.50;;;;;;;4.84;98.63;99156.78;5052878;28;20100;-79
2023/04/12 02:10:30;;;;;;;7.20;4.88;;;;;;;5.03;98.44;99175.13;5052563;28;20544;-79
2023/04/12 02:12:59;;;;;;;7.25;4.93;;;;;;;4.86;98.66;99156.75;5052685;28;20598;-79
2023/04/12 02:15:26;;;;;;;7.50;5.25;;;;;;;4.69;98.67;99128.91;5052368;28;20435;-79
2023/04/12 02:17:52;;;;;;;8.60;4.72;;;;;;;4.63;98.11;99126.50;5052561;28;20033;-79
2023/04/12 02:20:19;;;;;;;6.60;4.75;;;;;;;4.80;98.31;99156.94;5052404;28;20036;-79
2023/04/12 02:22:45;;;;;;;7.53;4.60;;;;;;;4.64;98.33;99141.94;5052648;28;20032;-79
2023/04/12 02:25:10;;;;;;;7.43;4.28;;;;;;;4.71;98.82;99163.22;5052564;28;20021;-79
2023/04/12 02:27:35;;;;;;;7.95;4.57;;;;;;;4.59;98.85;99142.97;5052089;28;20056;-79
2023/04/12 02:30:01;;;;;;;12.10;5.10;;;;;;;4.62;98.78;99168.66;5052200;28;20045;-79
2023/04/12 02:32:26;;;;;;;6.82;4.72;;;;;;;4.42;98.63;99143.47;5051915;28;20024;-79
2023/04/12 02:34:52;;;;;;;8.10;4.70;;;;;;;4.43;99.38;99150.34;5052824;28;20033;-79
2023/04/12 02:37:20;;;;;;;9.43;5.05;;;;;;;4.51;99.43;99158.69;5052418;28;20029;-79
2023/04/12 02:39:46;;;;;;;11.50;5.78;;;;;;;4.37;99.05;99138.44;5052318;28;20060;-79
2023/04/12 02:42:12;;;;;;;8.48;5.22;;;;;;;4.27;98.91;99128.47;5052191;28;20017;-79
2023/04/12 02:44:37;;;;;;;8.48;5.35;;;;;;;4.28;99.38;99127.56;5051954;28;20037;-79
2023/04/12 02:47:03;;;;;;;9.93;6.05;;;;;;;4.18;99.70;99127.00;5052291;28;20154;-79
2023/04/12 02:49:28;;;;;;;7.30;5.10;;;;;;;4.31;99.59;99150.69;5051826;28;20083;-79
2023/04/12 02:51:53;;;;;;;5.97;4.72;;;;;;;4.16;99.54;99121.03;5052077;28;20086;-79
2023/04/12 02:54:19;;;;;;;7.68;4.75;;;;;;;4.24;99.97;99132.81;5052067;28;20032;-79
2023/04/12 02:56:45;;;;;;;7.38;4.43;;;;;;;4.29;99.67;99139.56;5052130;28;20040;-79
2023/04/12 02:59:10;;;;;;;6.95;5.00;;;;;;;4.23;99.95;99132.84;5052031;28;20029;-79
2023/04/12 03:01:37;;;;;;;9.88;5.55;;;;;;;4.12;99.91;99115.13;5051618;28;20102;-79
2023/04/12 03:04:03;;;;;;;9.70;5.13;;;;;;;4.08;100.00;99098.06;5052081;28;20384;-79
2023/04/12 03:06:29;;;;;;;8.98;5.45;;;;;;;4.22;100.00;99129.44;5051810;28;20021;-79
2023/04/12 03:08:54;;;;;;;7.32;4.65;;;;;;;4.21;100.00;99122.59;5052002;28;20057;-78
2023/04/12 03:11:19;;;;;;;10.38;5.72;;;;;;;4.03;100.00;99102.50;5051886;28;20111;-79
2023/04/12 03:13:45;;;;;;;8.00;4.85;;;;;;;4.10;100.00;99124.63;5051570;28;20449;-78
2023/04/12 03:16:22;;;;;;;6.93;4.40;;;;;;;4.11;100.00;99131.47;5051745;28;20059;-78
2023/04/12 03:18:49;;;;;;;6.90;4.78;;;;;;;4.08;99.79;99126.41;5051942;28;20040;-78
2023/04/12 03:21:15;;;;;;;7.05;5.55;;;;;;;3.95;99.45;99105.28;5051746;28;20021;-78
2023/04/12 03:23:40;;;;;;;8.48;5.15;;;;;;;4.03;99.44;99130.84;5051583;28;20021;-78
2023/04/12 03:26:06;;;;;;;11.68;6.20;;;;;;;3.87;99.26;99103.81;5051718;28;20028;-78
2023/04/12 03:28:31;;;;;;;9.93;6.10;;;;;;;3.97;99.35;99134.44;5051139;28;20132;-79
2023/04/12 03:30:56;;;;;;;11.35;7.90;;;;;;;3.92;99.17;99127.75;5051910;28;20068;-78
2023/04/12 03:33:22;;;;;;;12.98;7.13;;;;;;;3.84;99.33;99111.66;5051763;28;20029;-78
2023/04/12 03:35:47;;;;;;;14.43;7.78;;;;;;;3.86;99.43;99143.34;5051464;28;20056;-79
2023/04/12 03:38:13;;;;;;;15.00;10.10;;;;;;;3.76;99.60;99124.75;5051656;28;20031;-79
2023/04/12 03:40:38;;;;;;;14.43;10.38;;;;;;;3.79;99.44;99147.81;5051171;28;20035;-79
2023/04/12 03:43:03;;;;;;;17.45;12.13;;;;;;;3.76;99.39;99145.34;5051484;28;20021;-79
2023/04/12 03:45:28;;;;;;;13.70;9.35;;;;;;;3.68;99.08;99139.56;5051214;28;20100;-78
2023/04/12 03:47:54;;;;;;;10.52;8.00;;;;;;;3.68;99.26;99155.00;5051652;28;20461;-79
2023/04/12 03:50:21;;;;;;;13.00;7.93;;;;;;;3.51;99.32;99132.28;5051455;28;20067;-79
2023/04/12 03:52:46;;;;;;;19.50;9.70;;;;;;;3.46;99.87;99136.72;5051239;28;20028;-78
2023/04/12 03:55:12;;;;;;;13.77;8.52;;;;;;;3.59;100.00;99162.97;5051417;28;20052;-79
2023/04/12 03:57:38;;;;;;;14.93;8.55;;;;;;;3.50;99.77;99143.47;5051143;28;20025;-78
2023/04/12 04:00:04;;;;;;;13.70;8.13;;;;;;;3.37;99.56;99121.47;5051251;28;20472;-78
2023/04/12 04:02:30;;;;;;;15.63;9.73;;;;;;;3.42;99.89;99137.66;5051238;28;20036;-78
2023/04/12 04:04:56;;;;;;;13.70;8.80;;;;;;;3.54;99.97;99157.06;5051280;28;20477;-78
2023/04/12 04:07:21;;;;;;;17.77;8.45;;;;;;;3.52;99.99;99143.41;5051524;28;20067;-78
2023/04/12 04:09:46;;;;;;;14.73;10.05;;;;;;;3.50;99.14;99149.47;5051245;28;20480;-78
2023/04/12 04:12:12;;;;;;;18.23;12.00;;;;;;;3.47;99.14;99157.25;5051311;28;20025;-78
2023/04/12 04:14:37;;;;;;;31.08;16.98;;;;;;;3.31;99.66;99127.63;5052076;28;20586;-78
2023/04/12 04:17:02;;;;;;;21.40;12.40;;;;;;;3.42;99.75;99148.81;5055042;28;20020;-78
2023/04/12 04:19:27;;;;;;;18.10;11.65;;;;;;;3.44;99.59;99149.59;5054760;28;20028;-78
2023/04/12 04:21:55;;;;;;;22.30;12.55;;;;;;;3.43;99.48;99141.94;5054613;28;20131;-78
2023/04/12 04:24:21;;;;;;;64.80;30.95;;;;;;;3.34;98.91;99126.72;5054586;28;20033;-78
2023/04/12 04:26:46;;;;;;;31.77;19.70;;;;;;;3.31;98.67;99124.22;5054530;28;20037;-78
2023/04/12 04:29:12;;;;;;;24.02;15.75;;;;;;;3.31;98.95;99125.06;5054609;28;20045;-78
2023/04/12 04:31:37;;;;;;;21.67;14.18;;;;;;;3.47;99.13;99136.66;5054560;28;20104;-78
2023/04/12 04:34:07;;;;;;;24.77;15.85;;;;;;;3.36;98.95;99119.78;5054530;28;20069;-78
2023/04/12 04:36:35;;;;;;;27.90;17.10;;;;;;;3.37;98.71;99124.91;5054155;28;20025;-78
2023/04/12 04:39:01;;;;;;;21.42;14.75;;;;;;;3.15;98.55;99087.72;5054461;28;20029;-78
2023/04/12 04:41:26;;;;;;;31.10;19.10;;;;;;;3.39;98.81;99128.28;5053042;28;20044;-78
2023/04/12 04:43:53;;;;;;;26.10;15.88;;;;;;;3.44;98.81;99139.31;5054711;28;20079;-79
2023/04/12 04:46:20;;;;;;;23.90;15.15;;;;;;;3.50;99.11;99131.44;5054476;28;20029;-79
2023/04/12 04:48:53;;;;;;;17.15;11.73;;;;;;;3.60;98.98;99128.63;5054202;28;20029;-79
2023/04/12 04:51:19;;;;;;;19.98;10.50;;;;;;;3.85;99.19;99145.09;5054318;28;20032;-79
2023/04/12 04:53:45;;;;;;;13.80;10.35;;;;;;;3.77;98.74;99117.84;5054099;28;20025;-79
2023/04/12 04:56:10;;;;;;;15.95;10.73;;;;;;;3.80;99.02;99121.19;5054129;28;20052;-79
2023/04/12 04:58:36;;;;;;;15.07;10.82;;;;;;;3.97;99.09;99139.59;5054120;28;20470;-79
2023/04/12 05:01:02;;;;;;;17.13;10.95;;;;;;;4.05;98.70;99149.69;5054122;28;20025;-79
2023/04/12 05:03:28;;;;;;;13.82;9.88;;;;;;;4.29;98.41;99140.41;5054144;28;20021;-79
2023/04/12 05:05:57;;;;;;;12.05;9.32;;;;;;;4.61;97.25;99136.03;5052752;28;20447;-79
2023/04/12 05:08:23;;;;;;;11.27;8.00;;;;;;;4.96;96.78;99133.19;5053978;28;20056;-79
2023/04/12 05:10:51;;;;;;;11.43;7.60;;;;;;;5.22;95.76;99132.34;5053499;28;20059;-79
2023/04/12 05:13:16;;;;;;;12.68;8.52;;;;;;;5.61;94.52;99108.66;5054018;28;20464;-79
2023/04/12 05:15:42;;;;;;;12.95;8.00;;;;;;;6.95;90.75;99097.56;5053739;28;20104;-79
2023/04/12 05:18:07;;;;;;;12.70;8.52;;;;;;;8.30;85.54;99091.72;5052559;28;20077;-79
2023/04/12 05:20:32;;;;;;;13.80;7.78;;;;;;;9.21;81.22;99096.84;5053559;28;20381;-79
2023/04/12 05:22:58;;;;;;;11.27;7.95;;;;;;;9.55;79.21;99105.56;5053799;28;20029;-79
2023/04/12 05:25:23;;;;;;;9.63;8.20;;;;;;;9.42;78.71;99073.31;5053218;28;20027;-79
2023/04/12 05:27:48;;;;;;;12.18;7.97;;;;;;;9.62;78.14;99091.31;5052922;28;20025;-78
2023/04/12 05:30:14;;;;;;;10.25;6.30;;;;;;;10.09;77.54;99079.34;5053643;28;20049;-79
2023/04/12 05:32:39;;;;;;;9.25;5.68;;;;;;;11.39;73.98;99098.09;5053239;28;20605;-78
2023/04/12 05:35:05;;;;;;;12.77;8.20;;;;;;;12.68;69.84;99071.00;5053543;28;20083;-79
2023/04/12 05:37:31;;;;;;;9.85;8.75;;;;;;;13.68;66.56;99093.19;5053146;28;20104;-78
2023/04/12 05:39:56;;;;;;;14.80;10.23;;;;;;;13.71;65.93;99090.38;5053228;28;20138;-79
2023/04/12 05:42:21;;;;;;;8.80;7.13;;;;;;;13.41;66.33;99085.44;5053478;28;20024;-79
2023/04/12 05:44:48;;;;;;;12.50;8.10;;;;;;;13.24;67.38;99089.19;5053119;28;20048;-79
2023/04/12 05:47:13;;;;;;;12.73;7.90;;;;;;;13.30;66.82;99072.22;5053314;28;20112;-79
2023/04/12 05:49:39;;;;;;;9.02;7.60;;;;;;;14.22;65.10;99092.94;5053044;28;20108;-79
2023/04/12 05:52:09;;;;;;;10.20;7.60;;;;;;;15.31;61.87;99088.50;5053123;28;20065;-79
2023/04/12 05:54:35;;;;;;;13.55;6.50;;;;;;;15.89;59.04;99091.97;5052664;28;20071;-79
2023/04/12 05:57:00;;;;;;;8.70;5.90;;;;;;;15.63;60.44;99087.84;5053003;28;20037;-79
2023/04/12 05:59:25;;;;;;;11.23;6.35;;;;;;;15.27;60.49;99083.59;5053027;28;20107;-79
2023/04/12 06:01:51;;;;;;;8.00;5.75;;;;;;;14.46;60.99;99091.19;5052589;28;20825;-79
2023/04/12 06:04:16;;;;;;;8.73;5.38;;;;;;;14.66;61.92;99087.19;5052875;28;20522;-79
2023/04/12 06:06:42;;;;;;;10.35;5.32;;;;;;;15.27;59.40;99070.50;5052559;28;20024;-78
2023/04/12 06:09:09;;;;;;;7.55;4.95;;;;;;;16.01;59.34;99098.06;5052657;28;20131;-79
2023/04/12 06:11:34;;;;;;;9.25;4.20;;;;;;;15.77;58.30;99090.31;5052670;28;20358;-79
2023/04/12 06:14:00;;;;;;;16.48;5.15;;;;;;;15.60;59.50;99088.09;5052833;28;20024;-79
2023/04/12 06:16:26;;;;;;;6.32;4.45;;;;;;;15.68;58.38;99083.13;5052772;28;20034;-80
2023/04/12 06:18:52;;;;;;;5.43;4.00;;;;;;;15.21;58.69;99064.75;5052358;28;20389;-79
2023/04/12 06:21:18;;;;;;;6.10;4.25;;;;;;;16.32;58.66;99074.66;5052484;28;20036;-80
2023/04/12 06:23:43;;;;;;;5.80;4.57;;;;;;;16.94;55.46;99081.91;5052233;28;20029;-80
2023/04/12 06:26:09;;;;;;;8.45;4.53;;;;;;;16.62;55.83;99048.50;5052637;28;20036;-80
2023/04/12 06:28:35;;;;;;;8.13;5.07;;;;;;;15.86;56.69;99034.44;5052269;28;20049;-79
2023/04/12 06:31:00;;;;;;;8.13;5.55;;;;;;;16.64;57.33;99057.13;5052530;28;20037;-79
2023/04/12 06:33:26;;;;;;;6.65;5.03;;;;;;;18.02;54.49;99077.19;5052260;28;20078;-80
2023/04/12 06:35:51;;;;;;;6.38;4.25;;;;;;;19.10;52.63;99082.56;5052172;28;20049;-80
2023/04/12 06:38:17;;;;;;;6.03;3.78;;;;;;;19.10;50.53;99063.28;5052092;28;20043;-80
2023/04/12 06:40:43;;;;;;;5.15;4.22;;;;;;;18.62;51.54;99070.13;5052167;28;20643;-80
2023/04/12 06:43:08;;;;;;;12.00;8.48;;;;;;;18.87;52.32;99062.69;5052384;28;20103;-79
2023/04/12 06:45:33;;;;;;;5.95;4.53;;;;;;;20.38;49.53;99077.63;5052265;28;20025;-80
2023/04/12 06:47:59;;;;;;;5.03;3.88;;;;;;;21.64;48.53;99058.09;5052033;28;20100;-80
2023/04/12 06:50:25;;;;;;;5.30;3.95;;;;;;;22.81;45.78;99038.81;5051972;28;20025;-80
2023/04/12 06:52:50;;;;;;;6.30;4.22;;;;;;;24.03;42.65;99066.31;5051652;28;20096;-77
2023/04/12 06:55:15;;;;;;;8.98;4.97;;;;;;;23.98;42.01;99039.41;5050873;28;20140;-77
2023/04/12 06:57:42;;;;;;;6.05;4.50;;;;;;;24.04;43.33;99071.44;5051887;28;20103;-79
2023/04/12 07:00:08;;;;;;;6.30;4.63;;;;;;;23.91;42.68;99063.19;5051865;28;20025;-78
2023/04/12 07:02:33;;;;;;;5.78;4.30;;;;;;;22.77;43.10;99058.72;5051787;28;20108;-78
2023/04/12 07:04:58;;;;;;;8.02;6.57;;;;;;;22.78;44.08;99063.03;5051651;28;20045;-78
2023/04/12 07:07:24;;;;;;;9.65;7.30;;;;;;;24.46;41.34;99056.97;5042956;28;20035;-76
2023/04/12 07:09:51;;;;;;;8.27;6.07;;;;;;;23.72;42.10;99039.63;5051114;28;20090;-77
2023/04/12 07:12:16;;;;;;;10.60;8.05;;;;;;;22.08;44.65;99062.47;5052005;28;20067;-77
2023/04/12 07:14:41;;;;;;;6.97;5.03;;;;;;;21.16;46.65;99056.75;5051557;28;20052;-78
2023/04/12 07:17:07;;;;;;;8.68;6.38;;;;;;;20.24;48.04;99049.03;5051262;28;20139;-79
2023/04/12 07:19:32;;;;;;;5.60;4.70;;;;;;;18.59;49.95;99062.53;5051957;28;20040;-79
2023/04/12 07:21:57;;;;;;;5.45;4.53;;;;;;;16.28;53.75;99057.44;5036004;28;20021;-79
2023/04/12 07:24:23;;;;;;;8.23;4.65;;;;;;;15.17;57.06;99059.84;5051666;28;20457;-79
2023/04/12 07:26:48;;;;;;;5.63;4.35;;;;;;;15.53;58.05;99039.63;5051242;28;20028;-79
2023/04/12 07:29:13;;;;;;;7.88;4.93;;;;;;;18.33;53.04;99061.34;5047915;28;20719;-79
2023/04/12 07:31:39;;;;;;;6.53;4.60;;;;;;;18.41;51.07;99032.50;5051379;28;20100;-79
2023/04/12 07:34:04;;;;;;;8.32;5.55;;;;;;;17.48;53.26;99035.31;5050098;28;20108;-79
2023/04/12 07:36:30;;;;;;;8.13;4.95;;;;;;;16.38;54.98;99006.63;5050921;28;20048;-79
2023/04/12 07:38:55;;;;;;;5.97;4.53;;;;;;;15.81;56.99;99036.59;5051631;28;20033;-79
2023/04/12 07:41:21;;;;;;;8.32;5.22;;;;;;;15.16;58.13;99022.28;5051491;28;20441;-79
2023/04/12 07:43:47;;;;;;;7.85;4.82;;;;;;;14.64;59.34;99012.22;5051404;28;20508;-79
2023/04/12 07:46:12;;;;;;;6.43;5.22;;;;;;;14.24;60.71;99041.25;5051330;28;20070;-79
2023/04/12 07:48:38;;;;;;;9.13;6.57;;;;;;;13.80;62.68;99050.47;5051462;28;20500;-79
2023/04/12 07:51:03;;;;;;;8.48;5.47;;;;;;;13.25;63.15;99025.47;5054904;28;20086;-79
2023/04/12 07:53:30;;;;;;;10.23;6.28;;;;;;;12.93;65.05;99010.13;5055303;28;20036;-79
2023/04/12 07:55:55;;;;;;;8.25;5.60;;;;;;;12.86;65.20;99018.50;5055371;28;20021;-79
2023/04/12 07:58:23;;;;;;;5.72;4.50;;;;;;;13.11;64.48;99015.09;5055426;28;20488;-79
2023/04/12 08:00:49;;;;;;;7.43;4.47;;;;;;;13.19;64.89;98991.88;5055047;28;20032;-79
2023/04/12 08:03:16;;;;;;;9.27;4.72;;;;;;;15.36;61.75;99022.56;5055161;28;20598;-79
2023/04/12 08:05:43;;;;;;;6.80;4.55;;;;;;;15.91;58.89;99024.41;5054879;28;20033;-80
2023/04/12 08:08:09;;;;;;;5.05;3.88;;;;;;;15.21;59.73;99016.69;5055275;28;20052;-79
2023/04/12 08:10:36;;;;;;;6.15;4.38;;;;;;;14.90;60.11;99016.38;5055217;28;20047;-79
2023/04/12 08:13:01;;;;;;;8.75;5.03;;;;;;;16.01;56.96;99002.66;5054840;28;20029;-79
2023/04/12 08:15:27;;;;;;;6.40;4.00;;;;;;;15.93;56.71;99017.25;5054915;28;20428;-79
2023/04/12 08:17:52;;;;;;;8.60;4.70;;;;;;;15.22;57.69;99007.88;5054716;28;20090;-79
2023/04/12 08:20:17;;;;;;;6.38;4.45;;;;;;;14.49;59.80;99001.06;5039881;28;20025;-79
2023/04/12 08:22:45;;;;;;;5.63;3.78;;;;;;;14.18;61.48;99021.59;5034595;28;20060;-79
2023/04/12 08:25:10;;;;;;;9.68;6.60;;;;;;;14.07;61.27;99021.50;5034936;28;20021;-80
2023/04/12 08:27:35;;;;;;;9.07;5.32;;;;;;;13.87;62.24;98995.94;5034825;28;20044;-78
2023/04/12 08:30:02;;;;;;;11.13;4.95;;;;;;;13.80;63.07;99007.75;5045282;28;20053;-78
2023/04/12 08:32:28;;;;;;;9.18;4.85;;;;;;;13.55;63.87;98985.91;5037695;28;20027;-80
2023/04/12 08:34:54;;;;;;;8.32;4.15;;;;;;;13.57;63.82;98991.03;5054071;28;20033;-78
2023/04/12 08:37:19;;;;;;;9.43;6.95;;;;;;;13.61;64.56;98985.50;5046439;28;20026;-78
2023/04/12 08:39:45;;;;;;;9.35;6.55;;;;;;;13.63;64.12;98991.44;5034077;28;20108;-78
2023/04/12 08:42:12;;;;;;;17.33;12.50;;;;;;;13.49;64.33;98981.13;5034178;28;20032;-78
2023/04/12 08:44:38;;;;;;;10.05;7.07;;;;;;;13.34;64.00;98976.94;5034278;28;20100;-78
2023/04/12 08:47:06;;;;;;;5.82;3.85;;;;;;;13.30;64.86;98978.91;5051766;28;20108;-78
2023/04/12 08:49:33;;;;;;;7.72;4.60;;;;;;;13.40;65.36;98987.81;5054148;28;20108;-78
2023/04/12 08:52:06;;;;;;;12.13;7.50;;;;;;;13.45;64.62;98983.09;5054063;28;20032;-78
2023/04/12 08:54:33;;;;;;;6.78;3.65;;;;;;;13.56;64.25;98998.03;5054107;28;20036;-78
2023/04/12 08:57:01;;;;;;;13.00;7.03;;;;;;;13.57;65.22;98991.91;5053647;28;20021;-78
2023/04/12 08:59:28;;;;;;;7.63;5.18;;;;;;;13.79;64.69;98987.78;5053971;28;20044;-78
2023/04/12 09:01:55;;;;;;;6.40;3.92;;;;;;;14.09;64.00;98976.91;5053455;28;20082;-78
2023/04/12 09:04:20;;;;;;;8.63;3.60;;;;;;;14.03;61.40;98965.09;5034402;28;20503;-78
2023/04/12 09:06:46;;;;;;;4.68;2.47;;;;;;;14.03;61.01;98987.78;5033982;28;20060;-79
2023/04/12 09:09:11;;;;;;;5.18;3.00;;;;;;;14.00;61.20;98980.19;5034265;28;20112;-80
2023/04/12 09:11:36;;;;;;;8.65;5.90;;;;;;;14.06;61.47;98959.63;5033920;28;20029;-79
2023/04/12 09:14:02;;;;;;;7.80;4.63;;;;;;;14.23;61.45;98961.00;5033724;28;20048;-80
2023/04/12 09:16:35;;;;;;;6.63;3.22;;;;;;;14.23;60.11;98950.53;5033855;28;20017;-79
2023/04/12 09:19:02;;;;;;;8.52;2.95;;;;;;;14.18;59.08;98960.53;5033759;28;20029;-80
2023/04/12 09:21:28;;;;;;;7.63;2.78;;;;;;;13.92;60.33;98944.91;5035703;28;20116;-80
2023/04/12 09:24:12;;;;;;;6.40;3.25;;;;;;;13.67;60.25;98966.75;5053491;28;20029;-80
2023/04/12 09:26:38;;;;;;;7.72;4.63;;;;;;;13.34;61.26;98972.53;5053618;28;20420;-80
2023/04/12 09:29:03;;;;;;;7.28;4.18;;;;;;;13.42;61.13;98966.78;5053214;28;20041;-80
2023/04/12 09:31:29;;;;;;;5.88;3.83;;;;;;;13.59;60.76;98957.75;5053650;28;20029;-80
2023/04/12 09:34:07;;;;;;;5.95;2.90;;;;;;;13.88;59.75;98938.22;5053267;28;20078;-80
2023/04/12 09:36:37;;;;;;;6.50;3.47;;;;;;;14.11;58.72;98943.56;5053418;28;20017;-80
2023/04/12 09:39:04;;;;;;;5.50;3.45;;;;;;;14.41;59.75;98962.31;5053219;28;20108;-80
2023/04/12 09:41:30;;;;;;;6.68;3.90;;;;;;;14.28;59.61;98948.41;5053206;28;20021;-80
2023/04/12 09:43:59;;;;;;;6.90;4.57;;;;;;;14.28;59.78;98951.03;5053270;28;20074;-76
2023/04/12 09:46:25;;;;;;;6.65;3.72;;;;;;;14.25;59.91;98955.69;5053149;28;20029;-77
2023/04/12 09:48:52;;;;;;;6.45;4.63;;;;;;;14.12;59.03;98942.66;5053010;28;20060;-77
2023/04/12 09:51:32;;;;;;;5.03;2.58;;;;;;;13.98;58.52;98927.91;5053184;28;20025;-77
2023/04/12 09:54:01;;;;;;;7.47;6.78;;;;;;;13.91;59.22;98924.09;5052751;28;20032;-77
2023/04/12 09:56:31;;;;;;;6.88;3.60;;;;;;;13.87;59.98;98926.09;5053253;28;20469;-78
2023/04/12 09:59:02;;;;;;;7.10;4.05;;;;;;;13.86;59.30;98942.75;5052858;28;20039;-77
2023/04/12 10:01:38;;;;;;;9.25;4.05;;;;;;;13.87;60.21;98933.09;5052941;28;20032;-77
2023/04/12 10:04:08;;;;;;;5.10;2.47;;;;;;;13.48;59.53;98914.03;5052725;28;20036;-75
2023/04/12 10:06:34;;;;;;;7.60;3.10;;;;;;;13.41;60.91;98929.31;5052749;28;20024;-76
2023/04/12 10:09:03;;;;;;;5.07;2.80;;;;;;;13.48;60.77;98903.56;5052753;28;20025;-77
2023/04/12 10:11:29;;;;;;;5.82;2.60;;;;;;;13.86;61.46;98923.56;5052810;28;20029;-76
2023/04/12 10:13:55;;;;;;;6.05;3.80;;;;;;;14.06;62.18;98909.88;5052100;28;20032;-76
2023/04/12 10:16:21;;;;;;;4.38;2.55;;;;;;;14.10;61.12;98906.06;5052641;28;20115;-76
2023/04/12 10:18:49;;;;;;;6.40;3.22;;;;;;;13.88;58.41;98904.19;5052610;28;20104;-76
2023/04/12 10:21:15;;;;;;;11.30;4.18;;;;;;;13.72;59.59;98888.75;5051091;28;20071;-76
2023/04/12 10:23:43;;;;;;;4.60;3.47;;;;;;;13.70;59.74;98900.28;5051525;28;20025;-76
2023/04/12 10:26:09;;;;;;;5.45;2.95;;;;;;;13.51;60.16;98897.28;5051167;28;20025;-76
2023/04/12 10:28:35;;;;;;;4.95;2.63;;;;;;;13.35;60.65;98894.91;5052466;28;20041;-76
2023/04/12 10:31:27;;;;;;;4.53;2.97;;;;;;;13.37;60.95;98903.50;5052238;28;20028;-76
2023/04/12 10:33:54;;;;;;;3.45;2.20;;;;;;;13.40;61.01;98898.88;5052008;28;20389;-76
2023/04/12 10:36:19;;;;;;;4.85;2.75;;;;;;;13.48;60.73;98895.72;5050539;28;20029;-76
2023/04/12 10:38:46;;;;;;;5.53;2.63;;;;;;;13.37;60.93;98875.56;5032330;28;20033;-76
2023/04/12 10:41:15;;;;;;;6.07;3.00;;;;;;;13.39;60.39;98894.56;5032004;28;20022;-76
2023/04/12 10:43:48;;;;;;;4.78;3.00;;;;;;;13.11;59.94;98892.19;5032349;28;20108;-76
2023/04/12 10:46:37;;;;;;;6.25;2.78;;;;;;;12.94;60.85;98891.56;5031935;28;20045;-76
2023/04/12 10:49:13;;;;;;;3.45;2.83;;;;;;;12.78;62.11;98858.75;5032155;28;20037;-76
2023/04/12 10:51:39;;;;;;;7.25;3.53;;;;;;;13.15;62.79;98864.91;5032242;28;20029;-76
2023/04/12 10:54:07;;;;;;;9.70;5.70;;;;;;;13.46;61.72;98874.06;5031964;28;20033;-76
2023/04/12 10:56:43;;;;;;;4.60;2.78;;;;;;;13.33;60.42;98870.66;5032017;28;20056;-76
2023/04/12 10:59:10;;;;;;;6.70;3.47;;;;;;;12.59;60.27;98849.53;5032005;28;20036;-76
2023/04/12 11:01:36;;;;;;;5.38;3.05;;;;;;;12.70;60.96;98862.72;5032074;28;20026;-76
2023/04/12 11:04:19;;;;;;;4.03;2.80;;;;;;;12.61;61.01;98842.44;5031878;28;20030;-76
2023/04/12 11:06:52;;;;;;;6.28;3.38;;;;;;;12.56;61.14;98834.09;5032032;28;20029;-75
2023/04/12 11:09:22;;;;;;;3.88;2.53;;;;;;;12.57;61.95;98837.53;5031847;28;20029;-76
2023/04/12 11:11:48;;;;;;;6.72;3.88;;;;;;;12.73;61.29;98856.47;5031990;28;20026;-75
2023/04/12 11:14:15;;;;;;;5.43;3.65;;;;;;;12.35;61.34;98823.31;5031628;28;20030;-75
2023/04/12 11:17:05;;;;;;;4.53;3.17;;;;;;;12.47;62.94;98840.78;5032037;28;20380;-75
2023/04/12 11:19:32;;;;;;;5.20;3.35;;;;;;;12.56;62.96;98834.09;5031766;28;20025;-75
2023/04/12 11:22:01;;;;;;;6.60;3.60;;;;;;;12.48;61.84;98820.72;5031714;28;20030;-84
2023/04/12 11:24:27;;;;;;;6.45;3.88;;;;;;;12.70;62.64;98796.56;5032571;28;20496;-76
2023/04/12 11:26:53;;;;;;;6.15;4.18;;;;;;;13.18;61.87;98825.44;5035731;28;20036;-75
2023/04/12 11:29:27;;;;;;;6.60;4.05;;;;;;;13.41;60.78;98823.88;5035915;28;20049;-75
2023/04/12 11:31:54;;;;;;;7.53;4.72;;;;;;;13.52;61.14;98807.38;5035760;28;20083;-75